Time;durP1;ratioP1;P1;durP2;ratioP2;P2;SDS_P1;SDS_P2;PMS_P1;PMS_P2;Temp;Humidity;BMP_temperature;BMP_pressure;BME280_temperature;BME280_humidity;BME280_pressure;Samples;Min_cycle;Max_cycle;Signal;HPM_P1;HPM_P2
2022/06/11 00:00:39;;;;;;;3.38;2.50;;;20.00;65.20;;;;;;5087489;28;20052;-71
2022/06/11 00:03:06;;;;;;;2.75;2.20;;;20.30;65.00;;;;;;5105857;28;20456;-71
2022/06/11 00:05:34;;;;;;;4.88;2.30;;;20.20;61.70;;;;;;5101575;28;20127;-71
2022/06/11 00:08:00;;;;;;;2.38;2.17;;;20.30;61.80;;;;;;5088431;28;20586;-71
2022/06/11 00:10:29;;;;;;;3.05;2.58;;;20.20;65.50;;;;;;5087415;28;20050;-71
2022/06/11 00:12:56;;;;;;;2.38;2.10;;;19.60;64.60;;;;;;5087521;28;20056;-71
2022/06/11 00:15:23;;;;;;;3.33;2.40;;;20.60;65.20;;;;;;5088371;28;20536;-71
2022/06/11 00:17:51;;;;;;;3.17;2.33;;;19.90;65.20;;;;;;5094189;28;20138;-71
2022/06/11 00:20:18;;;;;;;3.08;2.28;;;20.20;61.70;;;;;;5094671;28;20448;-71
2022/06/11 00:22:47;;;;;;;3.13;2.47;;;20.20;65.60;;;;;;5113057;28;20059;-71
2022/06/11 00:25:13;;;;;;;2.70;2.20;;;19.50;65.40;;;;;;5115763;28;20054;-71
2022/06/11 00:27:40;;;;;;;4.18;2.33;;;19.70;65.00;;;;;;5114554;28;20130;-71
2022/06/11 00:30:11;;;;;;;4.10;2.20;;;20.20;66.10;;;;;;5114390;28;20077;-71
2022/06/11 00:32:38;;;;;;;2.97;2.42;;;20.20;65.50;;;;;;5114761;28;20043;-71
2022/06/11 00:35:05;;;;;;;3.08;2.20;;;20.30;66.20;;;;;;5114477;28;20051;-71
2022/06/11 00:37:32;;;;;;;2.63;2.25;;;20.20;61.80;;;;;;5113969;28;20629;-71
2022/06/11 00:40:00;;;;;;;2.70;2.10;;;20.20;61.80;;;;;;5114329;28;20071;-71
2022/06/11 00:42:28;;;;;;;3.28;2.03;;;20.20;61.80;;;;;;5114423;28;20057;-71
2022/06/11 00:45:29;;;;;;;2.75;2.22;;;20.20;61.80;;;;;;5114248;28;20051;-71
2022/06/11 00:47:58;;;;;;;2.85;2.20;;;20.50;61.80;;;;;;5016029;28;20069;-71
2022/06/11 00:50:26;;;;;;;3.42;2.40;;;20.20;61.80;;;;;;5015583;28;20045;-71
2022/06/11 00:52:53;;;;;;;3.08;2.13;;;20.20;61.80;;;;;;5060467;28;20054;-71
2022/06/11 00:55:22;;;;;;;2.63;2.38;;;20.50;65.90;;;;;;5112838;28;20060;-71
2022/06/11 00:57:53;;;;;;;2.72;2.33;;;20.20;61.80;;;;;;5114330;28;20051;-71
2022/06/11 01:00:23;;;;;;;3.55;2.47;;;20.50;65.30;;;;;;5114755;28;20082;-71
2022/06/11 01:02:50;;;;;;;2.80;2.17;;;20.20;61.90;;;;;;5097022;28;20139;-71
2022/06/11 01:05:18;;;;;;;3.33;2.25;;;20.10;65.00;;;;;;5094012;28;20076;-71
2022/06/11 01:08:04;;;;;;;2.63;2.42;;;20.20;64.90;;;;;;5093515;28;20048;-71
2022/06/11 01:10:42;;;;;;;2.25;2.05;;;18.80;65.40;;;;;;5099893;28;20043;-71
2022/06/11 01:13:15;;;;;;;3.33;2.28;;;20.10;65.40;;;;;;5115160;28;20439;-71
2022/06/11 01:15:44;;;;;;;4.35;2.63;;;19.60;63.70;;;;;;5114623;28;20131;-71
2022/06/11 01:18:27;;;;;;;3.17;2.20;;;20.10;61.80;;;;;;5114083;28;20082;-71
2022/06/11 01:20:58;;;;;;;3.53;2.08;;;20.10;65.60;;;;;;5114354;28;20048;-71
2022/06/11 01:23:55;;;;;;;2.47;2.00;;;19.70;64.70;;;;;;5113980;28;20043;-71
2022/06/11 01:26:42;;;;;;;2.40;2.17;;;20.90;66.50;;;;;;5112298;28;20066;-71
2022/06/11 01:29:27;;;;;;;2.38;2.00;;;20.10;61.80;;;;;;5109923;28;20062;-71
2022/06/11 01:31:56;;;;;;;3.00;2.03;;;20.10;61.80;;;;;;5110788;28;20048;-71
2022/06/11 01:34:27;;;;;;;2.63;2.08;;;20.10;65.20;;;;;;5110718;28;20051;-71
2022/06/11 01:36:57;;;;;;;3.13;2.42;;;20.50;66.50;;;;;;5110576;28;20062;-71
2022/06/11 01:39:26;;;;;;;2.58;2.10;;;19.10;64.80;;;;;;5110985;28;20090;-71
2022/06/11 01:41:55;;;;;;;2.75;2.30;;;20.10;66.20;;;;;;5109488;28;20055;-71
2022/06/11 01:44:24;;;;;;;2.80;2.17;;;19.00;64.60;;;;;;5109979;28;20130;-71
2022/06/11 01:46:52;;;;;;;4.20;2.25;;;20.10;61.80;;;;;;5110328;28;20633;-71
2022/06/11 01:49:41;;;;;;;3.47;2.60;;;20.10;61.80;;;;;;5099037;28;20683;-71
2022/06/11 01:52:18;;;;;;;2.60;2.10;;;19.10;65.80;;;;;;5089950;28;20044;-71
2022/06/11 01:54:47;;;;;;;2.53;1.98;;;20.10;61.80;;;;;;5090093;28;20090;-71
2022/06/11 01:57:41;;;;;;;2.88;2.00;;;20.00;66.50;;;;;;5100845;28;20150;-71
2022/06/11 02:00:16;;;;;;;2.33;2.13;;;20.10;65.40;;;;;;5110333;28;20062;-71
2022/06/11 02:03:04;;;;;;;2.65;1.90;;;20.10;65.40;;;;;;5110645;28;20240;-71
2022/06/11 02:05:36;;;;;;;2.55;2.10;;;20.00;61.80;;;;;;5110216;28;20101;-71
2022/06/11 02:08:07;;;;;;;2.90;2.20;;;19.90;61.70;;;;;;5109916;28;20048;-71
2022/06/11 02:10:36;;;;;;;2.70;1.90;;;20.00;64.70;;;;;;5110306;28;20056;-71
2022/06/11 02:13:05;;;;;;;3.15;2.10;;;20.00;61.80;;;;;;5106869;28;20708;-71
2022/06/11 02:15:35;;;;;;;2.03;1.80;;;20.00;61.80;;;;;;5089815;28;20518;-71
2022/06/11 02:18:04;;;;;;;2.50;2.20;;;19.90;65.40;;;;;;5089717;28;20055;-71
2022/06/11 02:20:35;;;;;;;3.80;2.13;;;20.00;61.80;;;;;;5088943;28;20060;-71
2022/06/11 02:23:04;;;;;;;3.80;2.00;;;20.10;62.00;;;;;;5089596;28;20135;-71
2022/06/11 02:25:32;;;;;;;2.30;1.98;;;20.00;65.20;;;;;;5090586;28;20040;-71
2022/06/11 02:28:00;;;;;;;2.65;2.30;;;19.80;65.30;;;;;;5090695;28;20140;-71
2022/06/11 02:30:28;;;;;;;2.95;2.28;;;19.90;65.30;;;;;;5101555;28;20131;-71
2022/06/11 02:32:56;;;;;;;2.70;2.03;;;20.00;61.80;;;;;;5109232;28;20123;-71
2022/06/11 02:35:28;;;;;;;2.47;2.10;;;20.00;61.80;;;;;;5111001;28;20050;-71
2022/06/11 02:37:55;;;;;;;2.33;2.13;;;20.70;65.20;;;;;;5109740;28;20058;-71
2022/06/11 02:40:24;;;;;;;2.25;2.00;;;20.00;61.80;;;;;;5109396;28;20058;-71
2022/06/11 02:42:51;;;;;;;2.50;2.10;;;18.80;64.50;;;;;;5109166;28;20053;-71
2022/06/11 02:45:18;;;;;;;3.33;2.20;;;20.00;61.80;;;;;;5108946;28;20044;-71
2022/06/11 02:47:47;;;;;;;2.22;1.92;;;19.40;65.30;;;;;;5109464;28;20142;-71
2022/06/11 02:50:18;;;;;;;2.35;2.00;;;19.90;61.70;;;;;;5109417;28;20176;-71
2022/06/11 02:52:44;;;;;;;2.40;2.00;;;20.00;61.80;;;;;;5110343;28;20116;-71
2022/06/11 02:55:11;;;;;;;3.33;2.20;;;20.00;61.90;;;;;;5109175;28;20055;-71
2022/06/11 02:57:38;;;;;;;2.53;2.20;;;19.90;61.70;;;;;;5108879;28;20055;-71
2022/06/11 03:00:06;;;;;;;2.70;1.98;;;19.90;61.70;;;;;;5109354;28;20051;-71
2022/06/11 03:02:33;;;;;;;3.33;2.08;;;19.90;61.80;;;;;;5097142;28;20480;-71
2022/06/11 03:04:59;;;;;;;3.47;2.33;;;20.10;65.50;;;;;;5089635;28;20055;-71
2022/06/11 03:07:27;;;;;;;2.90;2.20;;;20.00;61.80;;;;;;5088835;28;20142;-71
2022/06/11 03:09:54;;;;;;;2.50;2.17;;;19.90;61.80;;;;;;5088553;28;20048;-71
2022/06/11 03:12:21;;;;;;;2.63;1.95;;;19.90;61.70;;;;;;5088506;28;20050;-71
2022/06/11 03:14:47;;;;;;;2.90;2.25;;;19.90;61.70;;;;;;5088596;28;20052;-71
2022/06/11 03:17:16;;;;;;;4.03;2.15;;;20.00;65.70;;;;;;5088526;28;20058;-71
2022/06/11 03:19:43;;;;;;;2.58;2.22;;;20.00;65.10;;;;;;5089643;28;20056;-71
2022/06/11 03:22:10;;;;;;;2.20;1.90;;;19.90;61.80;;;;;;5088484;28;20478;-71
2022/06/11 03:24:38;;;;;;;2.20;2.00;;;21.00;66.40;;;;;;5088005;28;20052;-71
2022/06/11 03:27:05;;;;;;;2.58;2.00;;;19.10;66.10;;;;;;5088427;28;20052;-71
2022/06/11 03:29:32;;;;;;;1.92;1.80;;;19.70;65.50;;;;;;5088565;28;20077;-71
2022/06/11 03:31:59;;;;;;;3.45;2.00;;;20.80;65.70;;;;;;5092097;28;20512;-71
2022/06/11 03:34:29;;;;;;;2.33;2.00;;;19.90;61.80;;;;;;5109104;28;20055;-71
2022/06/11 03:36:57;;;;;;;2.47;2.00;;;19.80;66.00;;;;;;5106758;28;20225;-71
2022/06/11 03:39:23;;;;;;;3.15;1.95;;;19.90;65.50;;;;;;5108300;28;20055;-71
2022/06/11 03:41:53;;;;;;;2.70;2.17;;;19.80;65.80;;;;;;5108632;28;20513;-71
2022/06/11 03:44:20;;;;;;;3.17;2.10;;;19.90;61.80;;;;;;5108130;28;20047;-71
2022/06/11 03:46:49;;;;;;;2.33;1.90;;;19.70;64.60;;;;;;5108313;28;20138;-71
2022/06/11 03:49:16;;;;;;;2.20;2.00;;;19.70;65.50;;;;;;5108179;28;20056;-71
2022/06/11 03:51:44;;;;;;;2.55;2.13;;;19.90;66.20;;;;;;5106939;28;20070;-71
2022/06/11 03:54:10;;;;;;;2.63;1.85;;;20.30;66.20;;;;;;5087494;28;20054;-71
2022/06/11 03:56:38;;;;;;;2.47;1.90;;;19.90;65.80;;;;;;5087629;28;20127;-71
2022/06/11 03:59:07;;;;;;;2.70;2.00;;;19.70;66.10;;;;;;5088077;28;20058;-71
2022/06/11 04:01:34;;;;;;;3.10;2.10;;;19.90;66.30;;;;;;5092763;28;20051;-71
2022/06/11 04:04:02;;;;;;;2.90;1.98;;;19.90;62.00;;;;;;5107946;28;20134;-71
2022/06/11 04:06:31;;;;;;;2.80;2.15;;;19.80;61.80;;;;;;5107989;28;20421;-71
2022/06/11 04:08:58;;;;;;;2.45;1.83;;;19.90;65.80;;;;;;5107549;28;20692;-71
2022/06/11 04:11:24;;;;;;;2.60;2.00;;;19.80;61.80;;;;;;5107940;28;20158;-71
2022/06/11 04:13:53;;;;;;;2.65;1.83;;;19.90;65.40;;;;;;5107935;28;20086;-71
2022/06/11 04:16:27;;;;;;;2.95;2.08;;;19.80;62.40;;;;;;5107655;28;20051;-71
2022/06/11 04:18:54;;;;;;;2.40;2.00;;;19.70;65.50;;;;;;5108090;28;20047;-71
2022/06/11 04:21:21;;;;;;;3.00;1.88;;;19.80;61.80;;;;;;5107909;28;20060;-71
2022/06/11 04:23:50;;;;;;;2.60;1.80;;;19.70;65.50;;;;;;5107826;28;20086;-71
2022/06/11 04:26:19;;;;;;;2.33;1.88;;;19.90;66.50;;;;;;5105865;28;20047;-71
2022/06/11 04:28:46;;;;;;;2.20;1.95;;;20.90;66.20;;;;;;5107799;28;20136;-71
2022/06/11 04:31:15;;;;;;;2.65;2.08;;;19.80;61.90;;;;;;5107520;28;20130;-71
2022/06/11 04:33:43;;;;;;;2.55;1.95;;;19.70;64.90;;;;;;5107612;28;20055;-71
2022/06/11 04:36:11;;;;;;;3.75;2.10;;;20.00;65.60;;;;;;5107830;28;20421;-71
2022/06/11 04:38:41;;;;;;;2.22;1.77;;;19.80;65.10;;;;;;5108772;28;20127;-71
2022/06/11 04:41:07;;;;;;;2.45;1.90;;;19.90;61.90;;;;;;5107370;28;20138;-71
2022/06/11 04:43:34;;;;;;;2.25;2.00;;;19.90;65.60;;;;;;5088428;28;20681;-71
2022/06/11 04:46:01;;;;;;;2.47;1.90;;;19.90;61.90;;;;;;5087078;28;20542;-71
2022/06/11 04:48:28;;;;;;;2.40;2.00;;;19.90;61.90;;;;;;5087254;28;20410;-71
2022/06/11 04:50:56;;;;;;;2.72;2.00;;;19.60;65.70;;;;;;5087573;28;20297;-71
2022/06/11 04:53:22;;;;;;;2.28;2.03;;;19.70;65.80;;;;;;5086931;28;20052;-71
2022/06/11 04:55:49;;;;;;;2.08;1.83;;;19.90;65.10;;;;;;5087297;28;20147;-71
2022/06/11 04:58:16;;;;;;;1.90;1.70;;;19.90;65.40;;;;;;5088287;28;20075;-71
2022/06/11 05:00:43;;;;;;;3.15;1.88;;;19.80;61.90;;;;;;5087311;28;20135;-71
2022/06/11 05:03:09;;;;;;;2.13;1.90;;;19.90;61.90;;;;;;5108511;28;20058;-71
2022/06/11 05:05:36;;;;;;;2.80;1.80;;;19.80;65.20;;;;;;5112734;28;20065;-71
2022/06/11 05:08:05;;;;;;;2.38;1.70;;;19.80;61.90;;;;;;5110905;28;20052;-71
2022/06/11 05:10:34;;;;;;;3.13;1.90;;;19.90;61.90;;;;;;5111582;28;20466;-71
2022/06/11 05:13:00;;;;;;;2.00;1.77;;;19.80;66.20;;;;;;5110854;28;20055;-71
2022/06/11 05:15:28;;;;;;;2.35;1.92;;;19.80;65.50;;;;;;5101997;28;20142;-71
2022/06/11 05:17:54;;;;;;;2.55;1.90;;;19.90;61.90;;;;;;5090825;28;20395;-71
2022/06/11 05:20:21;;;;;;;3.03;2.13;;;19.90;61.90;;;;;;5091140;28;20056;-71
2022/06/11 05:22:48;;;;;;;3.80;2.08;;;19.90;65.50;;;;;;5091257;28;20089;-71
2022/06/11 05:25:17;;;;;;;2.53;1.90;;;19.90;61.90;;;;;;5091588;28;20113;-71
2022/06/11 05:27:46;;;;;;;3.45;1.80;;;19.90;61.90;;;;;;5090799;28;20083;-71
2022/06/11 05:30:16;;;;;;;2.35;1.90;;;19.90;61.90;;;;;;5104674;28;20121;-71
2022/06/11 05:32:43;;;;;;;3.17;2.08;;;18.70;66.20;;;;;;5121088;27;20054;-71
2022/06/11 05:35:13;;;;;;;2.58;2.20;;;19.90;66.30;;;;;;5130944;27;20058;-71
2022/06/11 05:37:40;;;;;;;2.38;1.80;;;19.90;61.90;;;;;;5131454;27;20050;-72
2022/06/11 05:40:09;;;;;;;5.50;2.30;;;21.00;66.50;;;;;;5131300;27;20548;-71
2022/06/11 05:42:38;;;;;;;3.33;2.00;;;20.10;62.00;;;;;;5131061;27;20069;-71
2022/06/11 05:45:05;;;;;;;3.15;2.13;;;20.20;66.20;;;;;;5125930;27;20066;-71
2022/06/11 05:47:32;;;;;;;3.80;2.00;;;20.40;65.30;;;;;;5090392;28;20066;-71
2022/06/11 05:49:59;;;;;;;2.58;1.80;;;20.50;65.50;;;;;;5091154;28;20130;-71
2022/06/11 05:52:38;;;;;;;2.70;2.00;;;20.50;61.50;;;;;;5089922;28;20127;-71
2022/06/11 05:55:06;;;;;;;2.75;1.60;;;20.70;61.30;;;;;;5090259;28;20139;-71
2022/06/11 05:57:33;;;;;;;2.78;1.90;;;22.00;65.70;;;;;;5089829;28;20548;-71
2022/06/11 06:00:02;;;;;;;2.92;1.80;;;20.90;60.50;;;;;;5090058;28;20062;-71
2022/06/11 06:02:29;;;;;;;3.10;1.67;;;21.00;60.20;;;;;;5090270;28;20410;-71
2022/06/11 06:04:55;;;;;;;2.47;1.67;;;21.10;60.00;;;;;;5090772;28;20044;-71
2022/06/11 06:07:22;;;;;;;2.60;1.70;;;21.20;59.90;;;;;;5089953;28;20462;-71
2022/06/11 06:09:49;;;;;;;2.47;1.60;;;21.30;59.60;;;;;;5094083;28;20075;-71
2022/06/11 06:12:16;;;;;;;2.53;1.83;;;21.50;64.20;;;;;;5101382;28;20050;-71
2022/06/11 06:14:43;;;;;;;2.72;1.95;;;22.40;63.90;;;;;;5088346;28;20651;-71
2022/06/11 06:17:11;;;;;;;2.25;1.58;;;21.70;59.20;;;;;;5089782;28;20139;-71
2022/06/11 06:19:38;;;;;;;2.63;1.60;;;21.80;63.50;;;;;;5090810;28;20155;-72
2022/06/11 06:22:05;;;;;;;4.25;1.80;;;22.00;62.80;;;;;;5089473;28;20162;-71
2022/06/11 06:24:32;;;;;;;2.97;1.70;;;21.90;58.70;;;;;;5089322;28;20418;-70
2022/06/11 06:26:59;;;;;;;3.33;1.52;;;21.60;62.50;;;;;;5089315;28;20059;-71
2022/06/11 06:29:26;;;;;;;5.57;2.33;;;23.10;63.60;;;;;;5105291;28;20056;-70
2022/06/11 06:31:53;;;;;;;5.95;1.70;;;22.10;58.30;;;;;;5109533;27;20051;-71
2022/06/11 06:34:21;;;;;;;3.72;1.77;;;22.20;62.10;;;;;;5114526;27;20057;-71
2022/06/11 06:36:48;;;;;;;2.78;1.50;;;21.00;62.30;;;;;;5088882;28;20062;-71
2022/06/11 06:39:14;;;;;;;3.67;1.90;;;22.20;57.80;;;;;;5089246;28;20473;-72
2022/06/11 06:41:41;;;;;;;4.05;1.80;;;22.30;57.80;;;;;;5089495;28;20078;-71
2022/06/11 06:44:08;;;;;;;2.15;1.60;;;22.60;62.50;;;;;;5088811;28;20056;-71
2022/06/11 06:46:34;;;;;;;3.13;1.75;;;22.60;57.70;;;;;;5089310;28;20644;-73
2022/06/11 06:49:01;;;;;;;3.28;1.83;;;22.50;57.60;;;;;;5088995;28;20062;-72
2022/06/11 06:51:30;;;;;;;4.95;1.70;;;22.80;61.50;;;;;;5090357;28;20604;-71
2022/06/11 06:53:58;;;;;;;2.88;1.50;;;22.60;57.50;;;;;;5089722;28;20044;-72
2022/06/11 06:56:29;;;;;;;3.88;1.70;;;22.60;57.30;;;;;;5088813;28;20425;-72
2022/06/11 06:58:57;;;;;;;4.43;1.73;;;22.60;60.70;;;;;;5089005;28;20561;-72
2022/06/11 07:01:26;;;;;;;4.95;1.73;;;22.70;61.80;;;;;;5094191;28;20485;-72
2022/06/11 07:03:52;;;;;;;3.00;1.63;;;23.30;61.40;;;;;;5108785;28;20127;-72
2022/06/11 07:06:19;;;;;;;4.05;1.70;;;22.80;57.20;;;;;;5108997;28;20122;-71
2022/06/11 07:08:49;;;;;;;3.20;1.50;;;22.80;57.20;;;;;;5102370;28;20131;-72
2022/06/11 07:11:16;;;;;;;3.13;1.65;;;22.70;61.50;;;;;;5088844;28;20543;-71
2022/06/11 07:13:42;;;;;;;5.03;1.70;;;23.10;57.30;;;;;;5088156;28;20147;-71
2022/06/11 07:16:09;;;;;;;3.08;1.88;;;22.90;57.10;;;;;;5088023;28;20051;-71
2022/06/11 07:18:38;;;;;;;2.92;1.83;;;23.00;60.60;;;;;;5108590;28;20488;-71
2022/06/11 07:21:07;;;;;;;4.65;1.95;;;23.30;61.40;;;;;;5109045;28;20059;-72
2022/06/11 07:23:35;;;;;;;4.65;1.77;;;23.00;57.00;;;;;;5109642;28;20047;-72
2022/06/11 07:26:05;;;;;;;4.18;1.80;;;23.30;61.40;;;;;;5093096;28;20135;-70
2022/06/11 07:28:34;;;;;;;4.85;1.75;;;23.10;61.80;;;;;;5088243;28;20072;-70
2022/06/11 07:31:01;;;;;;;3.30;1.50;;;23.10;57.00;;;;;;5088036;28;20427;-70
2022/06/11 07:33:28;;;;;;;3.35;1.75;;;23.10;60.80;;;;;;5122503;27;20513;-71
2022/06/11 07:35:54;;;;;;;7.38;1.80;;;23.50;59.20;;;;;;5130155;27;20126;-71
2022/06/11 07:38:21;;;;;;;5.38;1.83;;;23.20;56.90;;;;;;5128737;27;20051;-71
2022/06/11 07:40:48;;;;;;;5.13;1.98;;;20.60;59.30;;;;;;5128882;27;20061;-71
2022/06/11 07:43:16;;;;;;;6.75;1.75;;;23.10;56.80;;;;;;5092659;27;20131;-71
2022/06/11 07:45:43;;;;;;;2.83;1.63;;;22.90;58.50;;;;;;5093741;28;20044;-71
2022/06/11 07:48:10;;;;;;;6.10;1.90;;;23.20;56.80;;;;;;5089108;28;20414;-70
2022/06/11 07:50:38;;;;;;;6.53;2.80;;;23.20;60.50;;;;;;5087516;28;20058;-71
2022/06/11 07:53:05;;;;;;;10.85;2.53;;;23.30;60.90;;;;;;5087296;28;20048;-71
2022/06/11 07:55:32;;;;;;;12.15;2.50;;;23.30;56.80;;;;;;5088847;28;20044;-71
2022/06/11 07:57:59;;;;;;;16.80;3.42;;;23.40;56.80;;;;;;5090266;28;20121;-71
2022/06/11 08:00:35;;;;;;;9.68;2.90;;;23.60;60.30;;;;;;5109263;28;20122;-71
2022/06/11 08:03:02;;;;;;;13.13;2.65;;;23.40;56.80;;;;;;5107655;28;20108;-71
2022/06/11 08:05:28;;;;;;;13.40;2.83;;;23.40;60.60;;;;;;5108226;28;20122;-71
2022/06/11 08:07:55;;;;;;;9.90;3.50;;;23.40;60.80;;;;;;5109462;28;20044;-71
2022/06/11 08:10:23;;;;;;;13.10;3.13;;;23.90;60.30;;;;;;5107736;28;20071;-71
2022/06/11 08:12:49;;;;;;;10.10;3.33;;;23.40;56.90;;;;;;5108721;28;20694;-71
2022/06/11 08:15:16;;;;;;;12.25;4.07;;;23.40;60.70;;;;;;5101643;28;20054;-71
2022/06/11 08:17:45;;;;;;;21.80;4.90;;;23.60;61.30;;;;;;5088555;28;20056;-71
2022/06/11 08:20:13;;;;;;;13.07;4.03;;;24.40;60.70;;;;;;5107953;28;20087;-71
2022/06/11 08:22:40;;;;;;;18.92;4.22;;;23.50;57.00;;;;;;5108542;28;20126;-71
2022/06/11 08:25:07;;;;;;;14.63;3.65;;;22.50;60.10;;;;;;5108779;28;20483;-71
2022/06/11 08:27:34;;;;;;;13.75;3.92;;;23.60;61.40;;;;;;5107672;28;20559;-71
2022/06/11 08:30:00;;;;;;;14.30;3.88;;;23.50;57.10;;;;;;5107443;28;20058;-72
2022/06/11 08:32:27;;;;;;;11.73;3.70;;;23.50;57.20;;;;;;5113966;28;20058;-71
2022/06/11 08:34:55;;;;;;;11.65;4.00;;;23.50;57.30;;;;;;5127940;28;20560;-71
2022/06/11 08:37:23;;;;;;;11.43;3.33;;;23.50;57.30;;;;;;5110153;28;20525;-71
2022/06/11 08:39:49;;;;;;;9.55;3.22;;;23.50;57.40;;;;;;5113251;28;20505;-71
2022/06/11 08:42:28;;;;;;;13.73;3.90;;;23.50;57.50;;;;;;5111755;28;20482;-71
2022/06/11 08:44:55;;;;;;;12.52;3.63;;;23.40;61.00;;;;;;5107027;28;20066;-71
2022/06/11 08:47:24;;;;;;;10.20;3.60;;;23.50;57.50;;;;;;5102521;28;20052;-74
2022/06/11 08:49:52;;;;;;;9.07;2.90;;;23.50;57.40;;;;;;5098499;28;20048;-71
2022/06/11 08:52:21;;;;;;;14.60;3.28;;;23.50;57.30;;;;;;5101302;28;20054;-71
2022/06/11 08:54:48;;;;;;;8.07;2.95;;;23.60;61.50;;;;;;5101896;28;20051;-71
2022/06/11 08:57:18;;;;;;;9.32;2.83;;;23.50;57.20;;;;;;5102517;28;20409;-71
2022/06/11 08:59:56;;;;;;;8.73;3.05;;;23.40;57.10;;;;;;5102154;28;20127;-71
2022/06/11 09:02:39;;;;;;;10.32;3.38;;;23.50;57.20;;;;;;5098082;28;20048;-71
2022/06/11 09:05:18;;;;;;;8.73;3.00;;;23.60;60.90;;;;;;5097296;28;20058;-71
2022/06/11 09:07:53;;;;;;;9.50;3.47;;;23.40;57.20;;;;;;5101121;28;20093;-71
2022/06/11 09:10:38;;;;;;;7.88;3.08;;;23.30;60.50;;;;;;5101862;28;20043;-71
2022/06/11 09:13:16;;;;;;;9.32;3.30;;;23.40;61.10;;;;;;5108374;28;20042;-71
2022/06/11 09:15:47;;;;;;;8.63;3.05;;;23.40;58.80;;;;;;5110877;28;20453;-71
2022/06/11 09:18:29;;;;;;;7.20;2.60;;;23.50;60.20;;;;;;5110744;28;20055;-71
2022/06/11 09:20:59;;;;;;;9.93;3.38;;;23.40;57.20;;;;;;5111173;28;20060;-71
2022/06/11 09:23:43;;;;;;;8.60;3.35;;;23.50;62.10;;;;;;5111864;28;20135;-71
2022/06/11 09:26:16;;;;;;;7.30;2.60;;;23.30;56.80;;;;;;5111123;28;20127;-71
2022/06/11 09:28:44;;;;;;;11.07;2.83;;;23.40;57.30;;;;;;5103012;27;20486;-73
2022/06/11 09:31:13;;;;;;;5.72;2.80;;;23.40;57.20;;;;;;5090782;28;20481;-71
2022/06/11 09:33:42;;;;;;;8.98;2.83;;;23.50;57.20;;;;;;5108628;28;20075;-71
2022/06/11 09:36:11;;;;;;;7.60;2.97;;;23.30;60.40;;;;;;5111896;28;20044;-71
2022/06/11 09:38:43;;;;;;;6.78;2.53;;;23.50;57.10;;;;;;5110809;28;20067;-71
2022/06/11 09:41:14;;;;;;;6.40;2.47;;;23.50;57.00;;;;;;5111162;28;20043;-71
2022/06/11 09:43:45;;;;;;;6.32;2.42;;;23.50;57.10;;;;;;5110067;28;20048;-72
2022/06/11 09:46:15;;;;;;;7.10;2.60;;;23.50;57.00;;;;;;5110776;28;20051;-71
2022/06/11 09:48:55;;;;;;;8.27;2.55;;;23.50;57.00;;;;;;5102973;28;20714;-71
2022/06/11 09:51:25;;;;;;;10.02;2.95;;;23.50;56.90;;;;;;5101697;28;20516;-71
2022/06/11 09:54:03;;;;;;;4.70;2.22;;;23.50;61.00;;;;;;5109462;28;20130;-71
2022/06/11 09:56:32;;;;;;;9.05;2.30;;;23.50;61.00;;;;;;5109076;28;20055;-71
2022/06/11 09:59:06;;;;;;;5.20;2.17;;;23.50;60.60;;;;;;5095675;28;20059;-71
2022/06/11 10:01:33;;;;;;;6.65;2.35;;;23.50;56.70;;;;;;5088344;28;20054;-73
2022/06/11 10:04:02;;;;;;;16.17;5.47;;;23.60;56.80;;;;;;5089470;28;20089;-71
2022/06/11 10:06:30;;;;;;;10.35;3.85;;;23.60;56.80;;;;;;5091009;28;20071;-71
2022/06/11 10:08:59;;;;;;;11.75;3.15;;;23.60;60.80;;;;;;5091450;28;20046;-71
2022/06/11 10:11:33;;;;;;;9.88;3.28;;;23.40;60.20;;;;;;5090827;28;20050;-71
2022/06/11 10:14:28;;;;;;;7.00;2.55;;;23.50;56.30;;;;;;5101473;28;20067;-71
2022/06/11 10:16:49;;;;;;;10.35;3.10;;;23.50;56.80;;;;;;5089535;28;20044;-71
2022/06/11 10:19:19;;;;;;;8.77;3.20;;;24.40;61.00;;;;;;5089481;28;20047;-72
2022/06/11 10:21:49;;;;;;;10.52;3.45;;;23.50;59.80;;;;;;5089762;28;20083;-72
2022/06/11 10:24:17;;;;;;;8.15;3.40;;;23.50;56.70;;;;;;5089345;28;20553;-72
2022/06/11 10:26:47;;;;;;;9.27;3.40;;;23.60;60.80;;;;;;5090562;28;20135;-72
2022/06/11 10:29:15;;;;;;;9.65;3.03;;;23.60;56.80;;;;;;5089512;28;20139;-72
2022/06/11 10:31:45;;;;;;;6.82;2.92;;;23.50;56.70;;;;;;5094742;27;20059;-72
2022/06/11 10:34:12;;;;;;;7.90;3.00;;;23.50;61.10;;;;;;5114778;27;20054;-72
2022/06/11 10:36:41;;;;;;;5.45;2.67;;;23.50;56.70;;;;;;5110848;28;20044;-72
2022/06/11 10:39:13;;;;;;;6.05;2.50;;;23.40;60.30;;;;;;5105551;28;20043;-72
2022/06/11 10:41:44;;;;;;;7.72;2.60;;;22.30;59.90;;;;;;5089495;28;20550;-72
2022/06/11 10:44:18;;;;;;;6.53;2.53;;;23.60;56.70;;;;;;5088323;28;20048;-72
2022/06/11 10:46:45;;;;;;;6.50;2.72;;;24.20;61.70;;;;;;5090288;28;20043;-72
2022/06/11 10:49:13;;;;;;;4.72;2.33;;;23.60;56.70;;;;;;5099689;28;20093;-71
2022/06/11 10:51:39;;;;;;;8.52;2.90;;;23.60;56.70;;;;;;5098914;28;20075;-71
2022/06/11 10:54:10;;;;;;;6.53;2.67;;;23.60;60.70;;;;;;5109582;28;20048;-71
2022/06/11 10:56:41;;;;;;;8.32;2.60;;;23.50;60.80;;;;;;5101388;28;20061;-72
2022/06/11 10:59:14;;;;;;;6.65;2.70;;;23.60;56.80;;;;;;5103438;28;20526;-71
2022/06/11 11:01:43;;;;;;;8.45;3.03;;;22.80;59.20;;;;;;5095000;28;20113;-71
2022/06/11 11:04:25;;;;;;;5.97;2.35;;;23.50;56.80;;;;;;5107282;28;20055;-71
2022/06/11 11:07:11;;;;;;;7.20;2.80;;;23.50;56.90;;;;;;5088544;28;20131;-72
2022/06/11 11:09:38;;;;;;;6.95;2.63;;;23.50;56.90;;;;;;5095298;28;20039;-71
2022/06/11 11:12:07;;;;;;;6.32;2.53;;;23.40;57.00;;;;;;5108875;28;20117;-72
2022/06/11 11:14:38;;;;;;;5.72;2.47;;;24.00;61.10;;;;;;5108605;28;20587;-72
2022/06/11 11:17:06;;;;;;;6.68;2.70;;;22.80;59.40;;;;;;5108887;28;20429;-72
2022/06/11 11:19:34;;;;;;;6.10;2.72;;;23.40;60.30;;;;;;5108824;28;20139;-71
2022/06/11 11:22:09;;;;;;;5.55;2.40;;;23.50;60.50;;;;;;5108140;28;20090;-71
2022/06/11 11:24:37;;;;;;;10.38;2.70;;;23.10;61.00;;;;;;5109733;28;20509;-71
2022/06/11 11:27:07;;;;;;;9.85;2.90;;;23.50;57.10;;;;;;5109797;28;20044;-71
2022/06/11 11:29:36;;;;;;;8.98;3.10;;;23.50;60.90;;;;;;5108592;28;20056;-72
2022/06/11 11:32:06;;;;;;;8.98;3.00;;;23.50;60.80;;;;;;5107082;28;20059;-72
2022/06/11 11:34:33;;;;;;;5.90;2.70;;;23.50;57.10;;;;;;5107576;28;20050;-72
2022/06/11 11:37:21;;;;;;;7.03;2.70;;;23.50;57.10;;;;;;5106979;28;20702;-72
2022/06/11 11:39:50;;;;;;;6.25;2.30;;;23.50;57.10;;;;;;5088287;28;20054;-71
2022/06/11 11:42:19;;;;;;;5.57;2.45;;;23.50;57.10;;;;;;5088232;28;20566;-72
2022/06/11 11:44:49;;;;;;;8.65;2.72;;;23.50;57.10;;;;;;5089106;28;20127;-72
2022/06/11 11:47:19;;;;;;;6.85;2.78;;;23.50;57.10;;;;;;5088193;28;20546;-72
2022/06/11 11:49:55;;;;;;;7.18;2.40;;;23.30;59.90;;;;;;5089516;28;20127;-72
2022/06/11 11:52:22;;;;;;;5.80;2.40;;;23.60;60.90;;;;;;5099391;28;20581;-71
2022/06/11 11:54:57;;;;;;;6.55;2.85;;;23.50;57.00;;;;;;5098067;28;20134;-71
2022/06/11 11:57:23;;;;;;;;;;;23.60;57.00;;;;;;5096258;28;20047;-71
2022/06/11 11:59:53;;;;;;;7.10;2.40;;;23.60;59.60;;;;;;5093525;28;20023;-71
2022/06/11 12:02:21;;;;;;;3.55;1.92;;;23.50;57.10;;;;;;5106420;28;20051;-71
2022/06/11 12:04:51;;;;;;;7.93;2.20;;;23.50;57.00;;;;;;5108189;28;20712;-71
2022/06/11 12:07:20;;;;;;;7.00;2.58;;;23.60;57.00;;;;;;5107832;28;20134;-71
2022/06/11 12:09:49;;;;;;;9.73;2.83;;;23.60;56.90;;;;;;5107472;28;20061;-71
2022/06/11 12:12:19;;;;;;;7.70;3.22;;;23.50;59.80;;;;;;5095079;28;20051;-71
2022/06/11 12:14:48;;;;;;;7.43;2.45;;;23.60;56.80;;;;;;5096102;28;20417;-71
2022/06/11 12:17:22;;;;;;;6.68;2.30;;;23.60;56.80;;;;;;5089133;28;20052;-71
2022/06/11 12:19:52;;;;;;;4.72;2.13;;;23.60;56.80;;;;;;5109030;28;20079;-72
2022/06/11 12:22:26;;;;;;;6.63;2.10;;;23.60;56.80;;;;;;5105488;28;20126;-71
2022/06/11 12:24:52;;;;;;;6.53;2.67;;;23.60;56.80;;;;;;5108062;28;20047;-71
2022/06/11 12:27:27;;;;;;;6.47;2.30;;;23.50;60.00;;;;;;5107006;28;20048;-71
2022/06/11 12:29:55;;;;;;;8.38;3.10;;;23.60;56.80;;;;;;5087370;28;20139;-71
2022/06/11 12:32:24;;;;;;;6.57;2.67;;;24.40;60.90;;;;;;5095196;28;20052;-71
2022/06/11 12:34:51;;;;;;;8.32;2.42;;;23.60;56.80;;;;;;5108627;28;20051;-71
2022/06/11 12:37:21;;;;;;;9.88;2.50;;;23.60;56.80;;;;;;5108885;28;20429;-71
2022/06/11 12:39:52;;;;;;;5.97;2.40;;;23.90;60.90;;;;;;5108916;28;20138;-71
2022/06/11 12:42:23;;;;;;;5.82;2.42;;;23.60;56.80;;;;;;5107828;28;20055;-71
2022/06/11 12:45:03;;;;;;;5.28;2.20;;;23.50;59.90;;;;;;5107867;28;20160;-71
2022/06/11 12:47:56;;;;;;;6.18;2.30;;;23.60;61.00;;;;;;5086866;28;20139;-71
2022/06/11 12:50:32;;;;;;;6.03;2.25;;;23.60;56.80;;;;;;5085592;28;20059;-71
2022/06/11 12:53:02;;;;;;;6.47;2.53;;;23.60;56.80;;;;;;5089912;28;20056;-71
2022/06/11 12:55:40;;;;;;;6.38;2.17;;;23.60;56.80;;;;;;5088436;28;20143;-71
2022/06/11 12:58:08;;;;;;;5.90;2.20;;;23.60;56.90;;;;;;5087134;28;20556;-71